Time;durP1;ratioP1;P1;durP2;ratioP2;P2;SDS_P1;SDS_P2;PMS_P1;PMS_P2;Temp;Humidity;BMP_temperature;BMP_pressure;BME280_temperature;BME280_humidity;BME280_pressure;Samples;Min_cycle;Max_cycle;Signal;HPM_P1;HPM_P2
2022/07/30 00:00:45;;;;;;;2.40;0.88;;;;;;;18.12;58.79;100953.90;1744691;80;28266;-76
2022/07/30 00:03:11;;;;;;;5.87;1.07;;;;;;;18.12;58.63;100955.77;1762687;80;25823;-75
2022/07/30 00:05:38;;;;;;;2.58;1.65;;;;;;;18.10;58.64;100957.88;1758121;80;25772;-77
2022/07/30 00:08:04;;;;;;;1.62;1.20;;;;;;;18.10;58.84;100956.02;1741390;80;26147;-76
2022/07/30 00:10:31;;;;;;;2.02;1.45;;;;;;;18.15;58.86;100951.27;1748069;80;26021;-75
2022/07/30 00:12:57;;;;;;;1.72;1.20;;;;;;;18.17;58.96;100947.80;1746744;80;27467;-74
2022/07/30 00:15:23;;;;;;;5.25;1.57;;;;;;;18.20;59.00;100950.03;1751605;80;25916;-76
2022/07/30 00:17:49;;;;;;;8.08;1.92;;;;;;;18.23;58.96;100946.88;1764839;80;25836;-77
2022/07/30 00:20:16;;;;;;;4.45;1.55;;;;;;;18.26;59.11;100952.66;1760636;80;25808;-75
2022/07/30 00:22:42;;;;;;;4.10;1.32;;;;;;;18.29;59.16;100954.09;1759512;79;25916;-76
2022/07/30 00:25:09;;;;;;;1.82;1.07;;;;;;;18.30;59.36;100956.60;1741231;81;27452;-76
2022/07/30 00:27:35;;;;;;;3.55;1.25;;;;;;;18.27;59.09;100944.84;1743153;81;25765;-76
2022/07/30 00:30:04;;;;;;;1.62;1.32;;;;;;;18.22;59.65;100937.91;1732145;80;26565;-76
2022/07/30 00:32:30;;;;;;;3.98;1.25;;;;;;;18.17;59.81;100942.37;1748420;81;25582;-76
2022/07/30 00:34:56;;;;;;;3.27;1.02;;;;;;;18.12;60.42;100938.15;1735569;81;25830;-76
2022/07/30 00:37:23;;;;;;;1.37;1.02;;;;;;;18.05;60.83;100934.72;1731176;81;27512;-77
2022/07/30 00:39:49;;;;;;;2.80;1.10;;;;;;;17.99;61.90;100938.31;1736448;81;26134;-77
2022/07/30 00:42:19;;;;;;;2.15;1.00;;;;;;;17.88;62.03;100937.73;1752390;80;25860;-77
2022/07/30 00:44:43;;;;;;;2.10;1.25;;;;;;;17.82;61.85;100933.19;1738826;80;25856;-76
2022/07/30 00:47:10;;;;;;;2.60;1.35;;;;;;;17.79;62.16;100932.31;1737952;80;25961;-80
2022/07/30 00:49:36;;;;;;;2.22;1.55;;;;;;;17.79;62.41;100939.08;1738273;80;27450;-76
2022/07/30 00:52:03;;;;;;;3.05;1.10;;;;;;;17.80;63.90;100934.78;1758122;80;25785;-76
2022/07/30 00:54:29;;;;;;;2.10;1.30;;;;;;;17.79;64.46;100924.17;1771167;79;25802;-76
2022/07/30 00:56:56;;;;;;;6.03;1.37;;;;;;;17.74;65.08;100923.50;1770913;80;25836;-76
2022/07/30 00:59:22;;;;;;;1.45;1.20;;;;;;;17.72;65.75;100913.41;1764334;79;25920;-76
2022/07/30 01:01:48;;;;;;;4.22;1.30;;;;;;;17.68;66.11;100909.50;1764262;80;28264;-77
2022/07/30 01:04:15;;;;;;;1.67;1.32;;;;;;;17.66;66.46;100908.91;1705546;81;26292;-76
2022/07/30 01:06:41;;;;;;;4.87;1.30;;;;;;;17.66;66.86;100906.19;1734839;81;25758;-76
2022/07/30 01:09:07;;;;;;;3.50;1.47;;;;;;;17.66;67.33;100908.34;1726594;81;26178;-76
2022/07/30 01:11:40;;;;;;;5.40;1.47;;;;;;;17.62;67.35;100896.31;1757885;80;25817;-75
2022/07/30 01:14:08;;;;;;;4.95;1.22;;;;;;;17.58;67.72;100898.34;1747973;80;28391;-77
2022/07/30 01:16:37;;;;;;;2.77;1.32;;;;;;;17.54;67.66;100891.72;1751283;80;25921;-75
2022/07/30 01:22:46;;;;;;;3.75;1.95;;;;;;;17.36;68.60;100879.50;1748040;80;25739;-75
2022/07/30 01:25:51;;;;;;;7.25;1.40;;;;;;;17.25;69.27;100877.01;1756196;80;25939;-77
2022/07/30 01:28:39;;;;;;;3.22;1.62;;;;;;;17.08;70.47;100870.51;1747623;80;27461;-76
2022/07/30 01:31:08;;;;;;;2.52;1.40;;;;;;;16.92;71.07;100865.64;1721448;80;26492;-76
2022/07/30 01:33:39;;;;;;;6.60;1.60;;;;;;;16.80;71.53;100871.48;1750914;81;25760;-77
2022/07/30 01:36:10;;;;;;;5.33;1.50;;;;;;;16.69;71.82;100870.83;1730967;80;26239;-76
2022/07/30 01:38:37;;;;;;;2.60;1.90;;;;;;;16.58;72.21;100869.67;1753785;80;25950;-75
2022/07/30 01:41:07;;;;;;;4.22;1.50;;;;;;;16.50;72.50;100863.18;1750341;80;27425;-77
2022/07/30 01:43:35;;;;;;;2.22;1.40;;;;;;;16.46;72.70;100856.52;1758687;80;25870;-76
2022/07/30 01:46:03;;;;;;;3.30;1.60;;;;;;;16.43;72.80;100846.65;1761789;80;25821;-75
2022/07/30 01:48:35;;;;;;;3.70;1.57;;;;;;;16.43;72.99;100847.48;1735367;81;25761;-76
2022/07/30 01:51:04;;;;;;;3.77;1.72;;;;;;;16.41;72.97;100841.98;1754475;80;25816;-76
2022/07/30 01:53:36;;;;;;;2.12;1.60;;;;;;;16.39;73.05;100847.62;1760857;80;27441;-76
2022/07/30 01:56:03;;;;;;;2.35;1.37;;;;;;;16.41;72.94;100846.87;1750522;80;25735;-77
2022/07/30 01:58:35;;;;;;;3.62;1.42;;;;;;;16.44;73.05;100834.80;1760049;80;25842;-76
2022/07/30 02:01:04;;;;;;;4.83;1.70;;;;;;;16.46;73.06;100834.05;1746768;80;25735;-75
2022/07/30 02:03:30;;;;;;;4.62;1.60;;;;;;;16.51;73.31;100842.38;1758352;80;25882;-77
2022/07/30 02:06:13;;;;;;;4.03;1.85;;;;;;;16.54;73.23;100837.35;1754996;80;27433;-77
2022/07/30 02:08:57;;;;;;;2.40;1.45;;;;;;;16.58;73.29;100837.21;1726168;81;25995;-79
2022/07/30 02:14:23;;;;;;;3.62;1.60;;;;;;;16.46;73.84;100824.08;1734777;81;25955;-76
2022/07/30 02:16:55;;;;;;;6.05;1.62;;;;;;;16.36;74.35;100814.25;1770458;80;25741;-76
2022/07/30 02:19:29;;;;;;;2.20;1.40;;;;;;;16.28;74.99;100817.22;1735780;81;28232;-76
2022/07/30 02:22:07;;;;;;;2.25;1.40;;;;;;;16.21;75.00;100813.73;1729321;81;25984;-76
2022/07/30 02:24:37;;;;;;;3.80;1.52;;;;;;;16.19;75.57;100809.06;1771069;80;25839;-76
2022/07/30 02:27:14;;;;;;;3.25;1.52;;;;;;;16.11;75.58;100806.11;1755338;80;25785;-75
2022/07/30 02:29:43;;;;;;;1.57;1.37;;;;;;;16.04;76.09;100808.53;1758188;80;25737;-75
2022/07/30 02:32:14;;;;;;;3.02;1.37;;;;;;;15.97;76.56;100801.81;1759685;80;27546;-76
2022/07/30 02:34:45;;;;;;;2.65;1.60;;;;;;;15.94;77.14;100793.33;1753410;80;25736;-75
2022/07/30 02:37:13;;;;;;;4.80;1.60;;;;;;;15.88;78.07;100786.09;1750517;80;26631;-76
2022/07/30 02:39:42;;;;;;;2.33;1.30;;;;;;;15.86;77.54;100786.84;1751327;80;26258;-75
2022/07/30 02:42:12;;;;;;;4.50;1.65;;;;;;;15.84;78.00;100783.01;1761173;80;25801;-76
2022/07/30 02:44:42;;;;;;;3.90;1.50;;;;;;;15.81;78.15;100779.37;1760672;79;27506;-76
2022/07/30 02:47:12;;;;;;;1.60;1.30;;;;;;;15.80;78.21;100772.84;1760157;80;26084;-76
2022/07/30 02:49:39;;;;;;;3.45;1.60;;;;;;;15.76;78.77;100773.78;1753287;80;26208;-75
2022/07/30 02:52:12;;;;;;;3.30;1.57;;;;;;;15.73;79.03;100764.78;1767763;80;25767;-74
2022/07/30 02:54:38;;;;;;;;;;;;;;;15.74;79.12;100768.31;1766065;80;26539;-76
2022/07/30 02:57:06;;;;;;;2.52;1.57;;;;;;;15.73;79.84;100764.78;1739723;80;27444;-75
2022/07/30 02:59:37;;;;;;;5.17;1.30;;;;;;;15.71;79.58;100768.73;1754243;80;25896;-76
2022/07/30 03:02:06;;;;;;;1.90;1.63;;;;;;;15.70;79.94;100770.60;1755309;80;25807;-77
2022/07/30 03:04:35;;;;;;;4.17;1.67;;;;;;;15.67;80.04;100779.16;1723838;81;26259;-75
2022/07/30 03:07:03;;;;;;;2.95;1.87;;;;;;;15.70;79.91;100779.22;1750256;80;25764;-75
2022/07/30 03:09:30;;;;;;;3.90;1.62;;;;;;;15.72;79.98;100779.83;1741397;80;27470;-76
2022/07/30 03:11:57;;;;;;;3.90;2.00;;;;;;;15.75;79.97;100772.14;1753924;80;25788;-76
2022/07/30 03:14:24;;;;;;;6.65;1.62;;;;;;;15.79;80.06;100769.31;1748367;80;25772;-77
2022/07/30 03:16:57;;;;;;;2.77;1.75;;;;;;;15.79;80.10;100759.86;1758366;80;26266;-77
2022/07/30 03:19:27;;;;;;;2.45;1.50;;;;;;;15.79;80.47;100757.16;1760044;80;26474;-76
2022/07/30 03:21:55;;;;;;;;;;;;;;;15.79;80.10;100754.45;1764133;80;28374;-76
2022/07/30 03:24:23;;;;;;;4.22;1.70;;;;;;;15.78;80.92;100745.23;1746080;80;25847;-77
2022/07/30 03:26:53;;;;;;;2.80;1.50;;;;;;;15.72;80.90;100745.55;1718060;80;25874;-77
2022/07/30 03:29:21;;;;;;;5.42;1.77;;;;;;;15.68;81.14;100751.09;1723436;81;25910;-76
2022/07/30 03:31:50;;;;;;;3.77;1.50;;;;;;;15.66;81.33;100742.89;1751332;80;25884;-77
2022/07/30 03:34:19;;;;;;;2.05;1.45;;;;;;;15.66;81.32;100745.59;1726096;81;27556;-74
2022/07/30 03:36:46;;;;;;;2.05;1.30;;;;;;;15.67;81.75;100752.66;1747948;80;25708;-76
2022/07/30 03:39:13;;;;;;;2.27;1.37;;;;;;;15.68;81.99;100753.79;1748767;80;25802;-78
2022/07/30 03:41:42;;;;;;;2.45;1.52;;;;;;;15.66;81.57;100758.58;1749180;80;26038;-76
2022/07/30 03:44:11;;;;;;;8.50;1.80;;;;;;;15.69;81.77;100757.33;1754704;80;25951;-76
2022/07/30 03:46:39;;;;;;;2.98;1.50;;;;;;;15.71;81.56;100753.88;1748310;80;26984;-76
2022/07/30 03:49:09;;;;;;;4.75;1.77;;;;;;;15.73;81.95;100754.49;1746626;80;25921;-76
2022/07/30 03:51:36;;;;;;;1.80;1.40;;;;;;;15.73;81.41;100753.98;1747119;80;25868;-77
2022/07/30 03:54:08;;;;;;;1.50;1.40;;;;;;;15.76;81.52;100758.13;1724480;81;26057;-76
2022/07/30 03:56:41;;;;;;;6.28;1.85;;;;;;;15.78;81.75;100760.09;1752864;80;26277;-75
2022/07/30 03:59:19;;;;;;;2.27;1.47;;;;;;;15.78;81.39;100755.48;1750064;80;27473;-76
2022/07/30 04:01:45;;;;;;;2.27;1.65;;;;;;;15.81;81.50;100752.37;1750326;80;25837;-75
2022/07/30 04:04:16;;;;;;;2.85;1.50;;;;;;;15.84;81.43;100751.11;1737485;80;25905;-75
2022/07/30 04:06:43;;;;;;;3.17;1.40;;;;;;;15.87;81.66;100752.01;1748927;80;25822;-76
2022/07/30 04:09:11;;;;;;;1.90;1.52;;;;;;;15.89;81.46;100754.80;1751824;80;25779;-77
2022/07/30 04:11:39;;;;;;;3.85;1.52;;;;;;;15.94;81.10;100756.34;1737527;80;27466;-77
2022/07/30 04:14:07;;;;;;;3.08;1.75;;;;;;;15.99;81.03;100762.45;1742205;80;26122;-75
2022/07/30 04:16:55;;;;;;;2.27;1.37;;;;;;;16.04;80.89;100762.59;1755713;80;26392;-77
2022/07/30 04:19:28;;;;;;;2.45;1.37;;;;;;;16.06;80.71;100755.09;1738324;80;25988;-78
2022/07/30 04:21:56;;;;;;;1.80;1.30;;;;;;;16.10;80.46;100761.75;1741754;80;25768;-76
2022/07/30 04:24:26;;;;;;;3.60;1.77;;;;;;;16.12;80.42;100761.81;1755496;80;27445;-77
2022/07/30 04:26:54;;;;;;;6.03;1.80;;;;;;;16.18;80.42;100771.77;1753947;80;25591;-76
2022/07/30 04:29:21;;;;;;;2.05;1.35;;;;;;;16.23;80.14;100771.92;1737655;80;25855;-77
2022/07/30 04:31:48;;;;;;;4.95;1.60;;;;;;;16.30;80.05;100766.47;1740203;80;25811;-77
2022/07/30 04:34:16;;;;;;;2.70;1.45;;;;;;;16.39;79.97;100760.27;1696514;81;25926;-78
2022/07/30 04:36:44;;;;;;;2.37;1.40;;;;;;;16.43;79.86;100762.31;1717664;82;27434;-77
2022/07/30 04:39:11;;;;;;;1.32;1.22;;;;;;;16.45;79.82;100753.45;1702390;82;25909;-76
2022/07/30 04:41:38;;;;;;;4.22;1.70;;;;;;;16.46;79.77;100752.94;1711767;82;25822;-75
2022/07/30 04:44:07;;;;;;;2.42;1.57;;;;;;;16.44;79.58;100757.22;1691161;82;25770;-76
2022/07/30 04:46:35;;;;;;;3.17;1.50;;;;;;;16.47;79.52;100755.92;1748681;80;26422;-77
2022/07/30 04:49:02;;;;;;;4.60;1.50;;;;;;;16.49;79.40;100756.02;1710124;81;28262;-77
2022/07/30 04:51:35;;;;;;;2.75;1.90;;;;;;;16.52;79.17;100758.84;1743997;80;26567;-77
2022/07/30 04:54:04;;;;;;;1.98;1.40;;;;;;;16.54;79.05;100756.73;1729258;81;25961;-76
2022/07/30 04:56:33;;;;;;;5.17;1.40;;;;;;;16.56;79.02;100755.98;1744398;80;25865;-77
2022/07/30 04:59:01;;;;;;;3.33;1.37;;;;;;;16.58;78.98;100753.38;1748731;80;26424;-76
2022/07/30 05:01:33;;;;;;;1.67;1.50;;;;;;;16.59;78.90;100761.80;1747212;80;27468;-76
2022/07/30 05:04:01;;;;;;;4.33;1.70;;;;;;;16.61;79.08;100758.35;1753326;80;26656;-75
2022/07/30 05:06:28;;;;;;;2.22;1.50;;;;;;;16.63;79.22;100756.25;1746143;80;26171;-77
2022/07/30 05:08:55;;;;;;;2.80;1.60;;;;;;;16.66;79.11;100756.30;1718072;80;25810;-77
2022/07/30 05:11:21;;;;;;;3.47;1.52;;;;;;;16.70;79.05;100756.19;1713599;82;25974;-79
2022/07/30 05:13:48;;;;;;;6.70;1.80;;;;;;;16.73;78.85;100761.14;1737320;80;27505;-77
2022/07/30 05:16:17;;;;;;;4.55;1.67;;;;;;;16.77;78.79;100762.34;1736656;80;25922;-77
2022/07/30 05:18:44;;;;;;;2.27;1.90;;;;;;;16.80;78.84;100761.39;1721107;80;26482;-76
2022/07/30 05:21:10;;;;;;;1.77;1.60;;;;;;;16.83;79.16;100756.87;1710345;82;26672;-76
2022/07/30 05:23:38;;;;;;;2.50;1.60;;;;;;;16.87;79.46;100751.31;1714185;82;25746;-77
2022/07/30 05:26:07;;;;;;;4.95;1.70;;;;;;;16.90;78.96;100755.45;1726703;81;27573;-77
2022/07/30 05:28:38;;;;;;;2.35;1.55;;;;;;;16.91;78.96;100749.00;1751171;80;25947;-77
2022/07/30 05:31:06;;;;;;;4.70;1.62;;;;;;;16.91;79.28;100744.39;1741074;80;25834;-77
2022/07/30 05:33:32;;;;;;;4.97;1.85;;;;;;;16.94;78.97;100751.24;1737830;80;26404;-77
2022/07/30 05:36:01;;;;;;;4.65;1.77;;;;;;;16.94;79.11;100754.78;1735447;81;25812;-77
2022/07/30 05:38:28;;;;;;;3.10;1.45;;;;;;;16.96;79.08;100751.84;1735691;80;28237;-77
2022/07/30 05:40:56;;;;;;;2.33;1.60;;;;;;;17.00;79.00;100754.40;1727336;81;25845;-77
2022/07/30 05:43:40;;;;;;;1.90;1.37;;;;;;;17.01;78.75;100752.01;1712133;80;26416;-76
2022/07/30 05:46:07;;;;;;;3.85;1.45;;;;;;;17.02;78.69;100744.72;1712698;82;26374;-80
2022/07/30 05:48:35;;;;;;;1.75;1.55;;;;;;;17.02;78.64;100740.14;1747777;80;25703;-78
2022/07/30 05:51:02;;;;;;;5.90;1.70;;;;;;;17.06;78.72;100744.56;1747540;80;28293;-77
2022/07/30 05:53:28;;;;;;;1.95;1.62;;;;;;;17.08;78.54;100743.30;1742149;80;25895;-78
2022/07/30 05:56:10;;;;;;;5.12;1.62;;;;;;;17.10;78.42;100743.89;1753569;80;25780;-77
2022/07/30 05:58:55;;;;;;;2.25;1.47;;;;;;;17.14;78.19;100745.62;1735008;80;26538;-77
2022/07/30 06:01:23;;;;;;;3.85;1.37;;;;;;;17.18;78.09;100741.40;1727147;81;25841;-77
2022/07/30 06:03:50;;;;;;;2.22;1.62;;;;;;;17.22;77.99;100742.59;1706669;81;27527;-77
2022/07/30 06:06:20;;;;;;;3.40;1.47;;;;;;;17.26;77.97;100742.44;1726135;81;25835;-77
2022/07/30 06:08:48;;;;;;;2.67;1.62;;;;;;;17.30;78.02;100746.38;1735784;81;25793;-81
2022/07/30 06:11:15;;;;;;;2.67;1.40;;;;;;;17.34;77.86;100743.52;1751706;80;25810;-77
2022/07/30 06:13:43;;;;;;;1.80;1.50;;;;;;;17.35;77.64;100739.22;1713402;82;25927;-78
2022/07/30 06:16:09;;;;;;;2.17;1.60;;;;;;;17.38;77.53;100741.48;1744132;80;27433;-78
2022/07/30 06:18:36;;;;;;;3.37;1.42;;;;;;;17.42;77.68;100733.20;1715249;82;25871;-77
2022/07/30 06:21:04;;;;;;;2.02;1.50;;;;;;;17.47;77.37;100736.58;1731598;81;26588;-76
2022/07/30 06:23:49;;;;;;;5.40;1.98;;;;;;;17.51;77.37;100739.96;1739028;81;26530;-76
2022/07/30 06:26:17;;;;;;;4.08;1.92;;;;;;;17.56;77.47;100733.86;1742086;80;26539;-76
2022/07/30 06:28:43;;;;;;;1.92;1.52;;;;;;;17.60;77.08;100730.98;1709248;81;28304;-77
2022/07/30 06:31:20;;;;;;;1.92;1.60;;;;;;;17.65;77.21;100733.84;1723953;81;26660;-77
2022/07/30 06:33:47;;;;;;;3.15;1.57;;;;;;;17.70;77.12;100736.70;1740800;80;25304;-77
2022/07/30 06:36:13;;;;;;;3.85;1.60;;;;;;;17.73;77.12;100732.72;1716196;82;25744;-77
2022/07/30 06:38:42;;;;;;;2.20;1.50;;;;;;;17.75;77.34;100723.83;1726332;81;26118;-77
2022/07/30 06:41:10;;;;;;;2.65;1.82;;;;;;;17.77;77.29;100717.65;1742924;80;27451;-77
2022/07/30 06:43:50;;;;;;;2.60;1.60;;;;;;;17.79;76.71;100723.66;1718175;81;25967;-78
2022/07/30 06:46:30;;;;;;;4.72;1.80;;;;;;;17.81;76.78;100714.77;1672143;82;25960;-78
2022/07/30 06:48:57;;;;;;;2.62;1.62;;;;;;;17.81;76.83;100706.12;1742632;81;25876;-76
2022/07/30 06:51:24;;;;;;;2.20;1.55;;;;;;;17.85;76.96;100702.41;1701792;82;25869;-77
2022/07/30 06:53:50;;;;;;;8.08;2.10;;;;;;;17.87;76.72;100703.84;1718051;81;27963;-77
2022/07/30 06:56:19;;;;;;;3.58;1.40;;;;;;;17.90;76.68;100706.06;1702761;82;26196;-76
2022/07/30 06:58:50;;;;;;;2.15;1.50;;;;;;;17.95;76.86;100706.73;1685198;83;25899;-77
2022/07/30 07:01:30;;;;;;;3.22;1.67;;;;;;;18.00;76.63;100710.94;1635357;83;26757;-77
2022/07/30 07:03:57;;;;;;;3.95;1.65;;;;;;;18.04;76.31;100706.70;1700209;82;25828;-77
2022/07/30 07:06:23;;;;;;;5.58;1.75;;;;;;;18.07;76.24;100708.41;1698610;82;27465;-77
2022/07/30 07:08:49;;;;;;;4.35;1.77;;;;;;;18.12;76.38;100703.64;1707802;82;26258;-77
2022/07/30 07:11:17;;;;;;;5.28;1.98;;;;;;;18.18;76.23;100697.28;1723857;82;26458;-77
2022/07/30 07:13:48;;;;;;;2.15;1.50;;;;;;;18.23;76.19;100691.47;1701685;82;26409;-79
2022/07/30 07:16:23;;;;;;;3.25;1.45;;;;;;;18.27;76.07;100694.00;1707967;82;25819;-77
2022/07/30 07:18:51;;;;;;;1.85;1.52;;;;;;;18.30;75.76;100694.07;1709796;82;27552;-76
2022/07/30 07:21:18;;;;;;;3.75;1.52;;;;;;;18.34;75.87;100692.54;1709139;82;25936;-76
2022/07/30 07:23:49;;;;;;;2.20;1.60;;;;;;;18.39;75.98;100694.83;1710978;82;25845;-76
2022/07/30 07:26:20;;;;;;;3.20;1.62;;;;;;;18.41;75.99;100703.55;1693701;82;25773;-77
2022/07/30 07:28:46;;;;;;;1.87;1.60;;;;;;;18.43;75.85;100702.78;1678867;83;25809;-77
2022/07/30 07:31:12;;;;;;;3.77;1.60;;;;;;;18.49;76.25;100703.78;1677899;83;27428;-76
2022/07/30 07:33:39;;;;;;;2.80;1.37;;;;;;;18.54;76.21;100703.08;1715844;82;25945;-76
2022/07/30 07:36:06;;;;;;;2.95;1.52;;;;;;;18.61;76.64;100709.19;1690260;82;25888;-77
2022/07/30 07:38:35;;;;;;;1.98;1.50;;;;;;;18.67;76.92;100707.71;1711449;82;26249;-75
2022/07/30 07:41:01;;;;;;;4.70;1.50;;;;;;;18.72;76.49;100711.91;1710704;82;25903;-76
2022/07/30 07:43:28;;;;;;;1.60;1.50;;;;;;;18.77;76.31;100706.61;1681298;83;27531;-77
2022/07/30 07:45:56;;;;;;;4.00;1.75;;;;;;;18.84;75.86;100707.84;1699587;82;26065;-77
2022/07/30 07:48:23;;;;;;;2.83;1.67;;;;;;;18.90;75.58;100708.23;1710372;82;26386;-76
2022/07/30 07:50:58;;;;;;;7.60;2.50;;;;;;;18.97;75.55;100704.84;1707843;82;25760;-76
2022/07/30 07:53:26;;;;;;;6.80;1.37;;;;;;;19.04;75.44;100697.40;1724123;80;25739;-76
2022/07/30 07:55:53;;;;;;;2.72;1.60;;;;;;;19.09;75.42;100690.73;1735751;81;28258;-77
2022/07/30 07:58:20;;;;;;;2.10;1.50;;;;;;;19.11;74.91;100690.79;1732643;81;26563;-78
2022/07/30 08:00:46;;;;;;;5.00;1.50;;;;;;;19.11;74.44;100682.64;1729225;81;25810;-77
2022/07/30 08:03:13;;;;;;;2.83;1.60;;;;;;;19.14;74.87;100682.14;1756469;80;25825;-76
2022/07/30 08:05:40;;;;;;;4.45;1.75;;;;;;;19.17;75.00;100670.81;1732502;81;25939;-78
2022/07/30 08:08:17;;;;;;;4.05;1.50;;;;;;;19.25;75.31;100665.52;1752478;80;27542;-76
2022/07/30 08:10:51;;;;;;;2.27;1.70;;;;;;;19.31;75.15;100661.03;1708826;80;25957;-77
2022/07/30 08:13:36;;;;;;;2.98;1.32;;;;;;;19.35;74.96;100664.41;1744778;80;25883;-77
2022/07/30 08:16:21;;;;;;;6.67;1.90;;;;;;;19.39;74.37;100662.86;1744766;80;25943;-77
2022/07/30 08:19:06;;;;;;;6.67;1.60;;;;;;;19.43;74.53;100664.02;1706733;81;25811;-78
2022/07/30 08:21:34;;;;;;;3.15;1.62;;;;;;;19.48;74.43;100666.02;1726907;81;28180;-77
2022/07/30 08:24:00;;;;;;;3.77;1.27;;;;;;;19.51;74.53;100661.42;1726131;81;26449;-77
2022/07/30 08:26:27;;;;;;;4.97;1.90;;;;;;;19.59;75.22;100660.50;1725715;81;25762;-77
2022/07/30 08:28:54;;;;;;;4.50;1.50;;;;;;;19.69;74.46;100664.78;1722197;81;25464;-77
2022/07/30 08:31:21;;;;;;;4.40;1.90;;;;;;;19.84;74.80;100658.26;1733735;81;25858;-77
2022/07/30 08:33:47;;;;;;;5.97;1.65;;;;;;;19.94;74.46;100663.03;1727775;81;28297;-77
2022/07/30 08:36:14;;;;;;;1.92;1.80;;;;;;;20.02;73.92;100655.81;1748574;80;25902;-77
2022/07/30 08:38:40;;;;;;;3.85;1.72;;;;;;;20.12;74.23;100649.73;1744578;80;25791;-77
2022/07/30 08:41:07;;;;;;;2.52;1.65;;;;;;;20.18;72.90;100662.33;1708820;83;26111;-75
2022/07/30 08:43:37;;;;;;;4.25;1.62;;;;;;;20.22;72.99;100644.47;1727190;81;26105;-76
2022/07/30 08:46:08;;;;;;;4.22;1.75;;;;;;;20.30;72.62;100642.69;1704748;81;27522;-76
2022/07/30 08:48:38;;;;;;;3.33;1.80;;;;;;;20.37;72.45;100639.27;1723057;81;25915;-77
2022/07/30 08:51:06;;;;;;;2.52;1.70;;;;;;;20.40;72.09;100640.14;1725201;81;26535;-78
2022/07/30 08:53:34;;;;;;;2.80;1.72;;;;;;;20.42;72.14;100644.23;1737642;81;25958;-79
2022/07/30 08:56:03;;;;;;;3.58;1.40;;;;;;;20.50;72.80;100644.36;1700530;82;25929;-77
2022/07/30 08:58:35;;;;;;;4.28;1.90;;;;;;;20.59;72.37;100650.46;1698586;82;27641;-76
2022/07/30 09:01:04;;;;;;;4.45;1.67;;;;;;;20.64;71.96;100646.46;1699626;82;25692;-76
2022/07/30 09:03:32;;;;;;;3.15;2.20;;;;;;;20.73;72.04;100646.84;1698196;82;25834;-77
2022/07/30 09:06:01;;;;;;;4.92;2.00;;;;;;;20.83;72.59;100651.63;1706518;82;25826;-76
2022/07/30 09:08:28;;;;;;;4.83;1.72;;;;;;;20.97;72.31;100655.08;1708190;82;25907;-76
2022/07/30 09:10:55;;;;;;;3.83;1.62;;;;;;;21.08;71.67;100656.05;1675126;83;27437;-78
2022/07/30 09:13:30;;;;;;;3.58;2.37;;;;;;;21.19;72.61;100657.82;1679330;83;26421;-79
2022/07/30 09:15:58;;;;;;;4.87;1.92;;;;;;;21.28;71.10;100648.92;1698435;82;25836;-78
2022/07/30 09:18:29;;;;;;;2.25;1.70;;;;;;;21.31;70.82;100653.05;1712992;82;26471;-78
2022/07/30 09:20:58;;;;;;;5.97;2.02;;;;;;;21.30;70.24;100653.58;1713665;82;26479;-79
2022/07/30 09:23:24;;;;;;;4.28;2.20;;;;;;;21.28;70.36;100654.37;1726891;82;28297;-77
2022/07/30 09:26:09;;;;;;;3.25;1.98;;;;;;;21.27;70.49;100650.55;1711427;82;25764;-77
2022/07/30 09:28:37;;;;;;;2.65;1.90;;;;;;;21.29;70.44;100647.86;1702579;82;25850;-79
2022/07/30 09:31:15;;;;;;;2.95;1.90;;;;;;;21.34;70.72;100649.83;1703848;82;25824;-77
2022/07/30 09:34:01;;;;;;;5.03;2.10;;;;;;;21.39;71.05;100643.05;1711689;82;25749;-78
2022/07/30 09:36:46;;;;;;;6.00;2.58;;;;;;;21.50;71.37;100651.62;1711248;82;28367;-78
2022/07/30 09:39:33;;;;;;;5.50;2.10;;;;;;;21.55;70.71;100650.85;1712348;82;26620;-79
2022/07/30 09:42:25;;;;;;;3.58;2.22;;;;;;;21.59;70.55;100650.61;1676048;83;26054;-77
2022/07/30 09:45:11;;;;;;;3.20;2.17;;;;;;;21.60;70.64;100651.71;1714384;82;26293;-79
2022/07/30 09:47:49;;;;;;;3.75;1.98;;;;;;;21.65;70.40;100653.13;1704899;82;25658;-79
2022/07/30 09:50:19;;;;;;;4.45;2.22;;;;;;;21.67;70.62;100650.14;1699924;82;27582;-78
2022/07/30 09:52:48;;;;;;;6.55;2.62;;;;;;;21.68;70.58;100646.34;1684446;83;26450;-78
2022/07/30 09:55:29;;;;;;;4.00;2.35;;;;;;;21.68;70.97;100644.45;1711274;81;25685;-77
2022/07/30 09:58:02;;;;;;;5.78;2.27;;;;;;;21.66;69.95;100645.25;1761847;80;26447;-78
2022/07/30 10:00:35;;;;;;;3.83;2.05;;;;;;;21.61;69.95;100635.66;1760234;80;26069;-78
2022/07/30 10:03:20;;;;;;;3.05;2.10;;;;;;;21.59;70.08;100634.26;1716151;81;27581;-78
2022/07/30 10:06:05;;;;;;;6.08;1.80;;;;;;;21.51;69.61;100635.00;1731970;81;25806;-77
2022/07/30 10:08:49;;;;;;;2.30;2.10;;;;;;;21.42;70.02;100632.48;1739104;81;26340;-76
2022/07/30 10:11:23;;;;;;;2.37;2.02;;;;;;;21.38;69.81;100635.97;1735198;81;25763;-77
2022/07/30 10:13:58;;;;;;;4.22;2.80;;;;;;;21.31;69.92;100634.80;1715406;81;25756;-78
2022/07/30 10:16:27;;;;;;;2.47;1.72;;;;;;;21.29;70.25;100630.69;1719836;81;27487;-76
2022/07/30 10:18:56;;;;;;;2.80;2.33;;;;;;;21.25;70.49;100638.56;1755103;79;26344;-77
2022/07/30 10:21:42;;;;;;;3.70;2.10;;;;;;;21.25;70.72;100639.09;1774879;80;25701;-76
2022/07/30 10:24:19;;;;;;;3.75;2.50;;;;;;;21.25;71.11;100638.56;1758941;80;25897;-76
2022/07/30 10:26:54;;;;;;;11.22;2.72;;;;;;;21.29;71.80;100641.05;1726560;81;26038;-77
2022/07/30 10:29:25;;;;;;;3.30;2.35;;;;;;;21.32;72.03;100645.97;1748565;80;27453;-77
2022/07/30 10:31:51;;;;;;;3.87;2.72;;;;;;;21.31;72.15;100637.53;1750126;80;25727;-80
2022/07/30 10:34:19;;;;;;;2.50;2.30;;;;;;;21.31;72.42;100643.52;1721013;81;26161;-77
2022/07/30 10:36:50;;;;;;;7.55;2.55;;;;;;;21.27;73.14;100643.21;1720463;81;26022;-77
2022/07/30 10:39:22;;;;;;;4.95;2.20;;;;;;;21.25;73.33;100637.73;1722219;82;25818;-77
2022/07/30 10:42:34;;;;;;;2.95;2.25;;;;;;;21.23;74.22;100638.52;1703548;82;27470;-77
2022/07/30 10:45:44;;;;;;;3.52;2.25;;;;;;;21.20;74.47;100638.48;1727343;81;25849;-76
2022/07/30 10:48:10;;;;;;;3.15;2.40;;;;;;;21.18;74.64;100643.91;1720764;81;26496;-76
2022/07/30 10:50:56;;;;;;;4.45;2.55;;;;;;;21.14;75.17;100646.86;1745982;80;25836;-78
2022/07/30 10:53:39;;;;;;;4.15;2.10;;;;;;;21.11;75.58;100644.09;1747749;80;26406;-76
2022/07/30 10:56:24;;;;;;;6.05;2.20;;;;;;;21.10;75.92;100647.09;1741527;80;27453;-75
2022/07/30 10:59:09;;;;;;;3.30;2.37;;;;;;;21.08;75.99;100647.34;1736263;80;26022;-76
2022/07/30 11:01:59;;;;;;;2.60;2.10;;;;;;;21.04;76.23;100643.45;1727942;81;26385;-77
2022/07/30 11:04:27;;;;;;;2.73;2.10;;;;;;;21.04;76.70;100642.09;1713118;82;25821;-76
2022/07/30 11:07:28;;;;;;;5.47;2.35;;;;;;;21.02;76.80;100639.34;1715829;82;26367;-77
2022/07/30 11:10:00;;;;;;;5.78;2.55;;;;;;;21.01;76.95;100641.77;1714466;82;27457;-78
2022/07/30 11:12:47;;;;;;;3.72;2.22;;;;;;;20.98;76.72;100636.84;1744321;80;25908;-78
2022/07/30 11:15:15;;;;;;;3.60;2.10;;;;;;;20.96;77.16;100633.52;1714726;82;25833;-77
2022/07/30 11:18:04;;;;;;;4.92;2.30;;;;;;;20.91;76.94;100634.30;1706169;82;26229;-77
2022/07/30 11:20:32;;;;;;;3.52;2.00;;;;;;;20.91;77.27;100634.84;1710897;82;25669;-77
2022/07/30 11:23:26;;;;;;;4.53;1.80;;;;;;;20.86;77.41;100627.42;1729073;81;27474;-78
2022/07/30 11:25:52;;;;;;;3.40;1.95;;;;;;;20.83;76.95;100630.64;1735086;81;25806;-78
2022/07/30 11:28:44;;;;;;;3.33;2.30;;;;;;;20.77;77.04;100628.94;1739083;80;26069;-77
2022/07/30 11:31:35;;;;;;;8.63;2.30;;;;;;;20.74;77.33;100627.53;1734958;81;26334;-77
2022/07/30 11:34:24;;;;;;;6.95;2.20;;;;;;;20.71;77.42;100628.59;1728200;81;25853;-77
2022/07/30 11:37:17;;;;;;;3.52;1.80;;;;;;;20.65;77.07;100620.91;1728725;81;27441;-76
2022/07/30 11:39:58;;;;;;;3.67;2.00;;;;;;;20.61;77.18;100618.41;1725072;81;25741;-77
2022/07/30 11:42:32;;;;;;;3.52;2.00;;;;;;;20.56;77.19;100618.85;1725593;81;25995;-77
2022/07/30 11:48:11;;;;;;;4.05;2.22;;;;;;;20.45;78.00;100621.97;1726932;81;25909;-77
2022/07/30 11:50:39;;;;;;;2.15;1.95;;;;;;;20.41;78.27;100622.72;1732598;81;27513;-78
2022/07/30 11:53:10;;;;;;;5.05;2.37;;;;;;;20.35;78.52;100622.36;1723802;81;25956;-76
2022/07/30 11:55:41;;;;;;;4.20;2.17;;;;;;;20.29;78.75;100629.64;1728130;81;25732;-76